Terminal Aerodrome Forecast
Issued by NWS

Home | Current Version | Previous Version | Text Only | Print | Product List | Glossary Off
Versions: 1 2 3 4 5 6 7 8 9 10 11 12 13 14 15 16 17 18 19 20

901
FTUS43 KBIS 301434 AAA
TAFMOT
TAF AMD
KMOT 301434Z 3015/0112 32016KT P6SM VCSH SCT020 OVC035
     FM301600 32014KT P6SM VCSH SCT008 OVC020
     FM301800 32011KT P6SM VCSH OVC008
     FM010200 32006KT P6SM OVC008=

USA.gov is the U.S. government's official web portal to all federal, state and local government web resources and services.